createdAt,value
2022-09-12T00:01:28.223Z,66.82
2022-09-12T00:03:58.302Z,66.74
2022-09-12T00:06:33.765Z,66.70
2022-09-12T00:09:02.664Z,67.05
2022-09-12T00:11:30.311Z,67.41
2022-09-12T00:13:59.110Z,67.77
2022-09-12T00:16:27.513Z,67.82
2022-09-12T00:18:54.580Z,67.86
2022-09-12T00:21:21.982Z,68.13
2022-09-12T00:23:51.692Z,68.35
2022-09-12T00:26:19.267Z,68.44
2022-09-12T00:28:46.675Z,68.65
2022-09-12T00:31:15.851Z,68.86
2022-09-12T00:33:43.157Z,69.01
2022-09-12T00:36:21.608Z,69.20
2022-09-12T00:38:49.540Z,69.05
2022-09-12T00:41:28.298Z,68.96
2022-09-12T00:43:58.593Z,69.19
2022-09-12T00:46:36.363Z,69.33
2022-09-12T00:49:06.243Z,69.14
2022-09-12T00:51:33.966Z,68.76
2022-09-12T00:54:02.405Z,68.20
2022-09-12T00:56:29.307Z,68.31
2022-09-12T00:59:00.738Z,68.72
2022-09-12T01:01:32.547Z,69.16
2022-09-12T01:04:00.772Z,69.68
2022-09-12T01:06:29.661Z,69.81
2022-09-12T01:08:56.753Z,70.04
2022-09-12T01:11:23.755Z,70.35
2022-09-12T01:13:50.819Z,70.43
2022-09-12T01:16:20.243Z,70.64
2022-09-12T01:19:06.297Z,70.33
2022-09-12T01:21:43.380Z,70.05
2022-09-12T01:24:19.437Z,69.14
2022-09-12T01:27:00.410Z,68.99
2022-09-12T01:29:46.404Z,68.35
2022-09-12T01:32:13.680Z,67.42
2022-09-12T01:35:09.173Z,66.58
2022-09-12T01:37:49.224Z,65.96
2022-09-12T01:40:29.176Z,65.46
2022-09-12T01:43:30.947Z,65.01
2022-09-12T01:46:09.515Z,64.81
2022-09-12T01:48:38.824Z,64.61
2022-09-12T01:51:18.387Z,64.56
2022-09-12T01:53:48.540Z,64.41
2022-09-12T01:56:22.179Z,64.46
2022-09-12T01:59:01.549Z,64.23
2022-09-12T02:01:32.027Z,64.16
2022-09-12T02:04:11.493Z,63.91
2022-09-12T02:06:44.704Z,63.89
2022-09-12T02:09:16.075Z,63.28
2022-09-12T02:11:43.510Z,63.25
2022-09-12T02:14:32.473Z,62.98
2022-09-12T02:17:02.898Z,62.96
2022-09-12T02:19:33.119Z,63.20
2022-09-12T02:22:00.993Z,63.24
2022-09-12T02:24:33.970Z,63.34
2022-09-12T02:27:05.215Z,63.31
2022-09-12T02:29:32.267Z,63.33
2022-09-12T02:32:00.749Z,63.38
2022-09-12T02:34:51.551Z,63.00
2022-09-12T02:37:38.159Z,63.02
2022-09-12T02:40:07.203Z,63.20
2022-09-12T02:42:36.492Z,63.11
2022-09-12T02:45:03.815Z,63.27
2022-09-12T02:47:35.568Z,63.31
2022-09-12T02:50:02.666Z,63.29
2022-09-12T02:52:31.911Z,63.17
2022-09-12T02:54:59.162Z,63.00
2022-09-12T02:57:31.020Z,63.10
2022-09-12T02:59:59.708Z,63.45
2022-09-12T03:02:55.360Z,63.67
2022-09-12T03:05:28.721Z,63.91
2022-09-12T03:08:26.079Z,64.31
2022-09-12T03:11:09.402Z,64.86
2022-09-12T03:13:50.993Z,65.26
2022-09-12T03:16:52.240Z,65.63
2022-09-12T03:20:40.081Z,66.72
2022-09-12T03:23:16.453Z,66.93
2022-09-12T03:25:50.251Z,67.33
2022-09-12T03:28:17.960Z,67.62
2022-09-12T03:30:49.224Z,67.70
2022-09-12T03:33:18.256Z,68.00
2022-09-12T03:35:47.825Z,68.79
2022-09-12T03:38:15.322Z,69.04
2022-09-12T03:40:42.811Z,69.39
2022-09-12T03:43:12.382Z,69.66
2022-09-12T03:45:39.494Z,70.09
2022-09-12T03:48:06.684Z,70.19
2022-09-12T03:50:34.152Z,70.01
2022-09-12T03:53:02.106Z,70.18
2022-09-12T03:55:29.567Z,70.36
2022-09-12T03:57:56.753Z,70.55
2022-09-12T04:00:23.863Z,71.07
2022-09-12T04:02:56.340Z,71.14
2022-09-12T04:05:24.408Z,71.08
2022-09-12T04:07:54.018Z,71.44
2022-09-12T04:10:21.164Z,71.92
2022-09-12T04:12:48.316Z,72.08
2022-09-12T04:15:15.467Z,72.30
2022-09-12T04:17:42.429Z,72.29
2022-09-12T04:20:10.075Z,72.09
2022-09-12T04:22:37.127Z,72.20
2022-09-12T04:25:04.883Z,72.50
2022-09-12T04:27:31.935Z,72.80
2022-09-12T04:30:00.375Z,73.05
2022-09-12T04:32:27.457Z,73.14
2022-09-12T04:34:54.372Z,72.91
2022-09-12T04:37:22.370Z,72.63
2022-09-12T04:39:49.985Z,72.15
2022-09-12T04:42:17.185Z,71.94
2022-09-12T04:44:44.232Z,71.54
2022-09-12T04:47:11.293Z,71.66
2022-09-12T04:49:38.327Z,71.59
2022-09-12T04:52:05.578Z,71.47
2022-09-12T04:54:32.935Z,71.17
2022-09-12T04:57:00.284Z,71.07
2022-09-12T04:59:28.056Z,70.78
2022-09-12T05:01:57.476Z,70.33
2022-09-12T05:04:24.600Z,70.25
2022-09-12T05:06:51.852Z,70.41
2022-09-12T05:09:19.103Z,70.54
2022-09-12T05:14:34.026Z,70.40
2022-09-12T05:17:02.059Z,70.47
2022-09-12T05:19:30.484Z,70.40
2022-09-12T05:21:57.711Z,70.50
2022-09-12T05:24:25.065Z,70.48
2022-09-12T05:26:52.109Z,70.38
2022-09-12T05:29:20.271Z,70.37
2022-09-12T05:31:51.409Z,70.33
2022-09-12T05:34:19.276Z,70.05
2022-09-12T05:36:46.320Z,69.80
2022-09-12T05:39:13.585Z,69.47
2022-09-12T05:41:40.517Z,69.05
2022-09-12T05:44:10.947Z,69.00
2022-09-12T05:46:39.344Z,69.04
2022-09-12T05:49:08.006Z,68.80
2022-09-12T05:51:36.999Z,68.83
2022-09-12T05:54:05.013Z,68.87
2022-09-12T05:56:33.606Z,68.86
2022-09-12T05:59:03.164Z,68.78
2022-09-12T06:01:31.282Z,68.72
2022-09-12T06:04:02.272Z,68.97
2022-09-12T06:06:30.245Z,69.15
2022-09-12T06:08:59.368Z,69.02
2022-09-12T06:11:27.720Z,68.77
2022-09-12T06:13:56.098Z,68.71
2022-09-12T06:16:26.126Z,68.51
2022-09-12T06:18:58.074Z,68.22
2022-09-12T06:21:26.637Z,67.94
2022-09-12T06:23:54.623Z,67.76
2022-09-12T06:26:23.716Z,67.74
2022-09-12T06:28:50.866Z,67.36
2022-09-12T06:31:19.858Z,67.24
2022-09-12T06:34:05.981Z,67.04
2022-09-12T06:36:35.010Z,66.90
2022-09-12T06:39:07.834Z,66.96
2022-09-12T06:41:34.900Z,67.16
2022-09-12T06:44:02.383Z,66.88
2022-09-12T06:46:29.593Z,66.80
2022-09-12T06:48:57.266Z,66.58
2022-09-12T06:51:24.803Z,66.58
2022-09-12T06:53:52.570Z,66.54
2022-09-12T06:56:20.539Z,66.38
2022-09-12T06:58:51.064Z,66.25
2022-09-12T07:01:20.129Z,66.31
2022-09-12T07:03:51.304Z,66.09
2022-09-12T07:06:20.091Z,65.91
2022-09-12T07:08:47.371Z,65.83
2022-09-12T07:11:20.538Z,65.75
2022-09-12T07:13:48.408Z,65.62
2022-09-12T07:16:19.455Z,65.65
2022-09-12T07:18:54.560Z,65.74
2022-09-12T07:21:21.737Z,66.03
2022-09-12T07:23:49.292Z,66.03
2022-09-12T07:26:16.651Z,65.98
2022-09-12T07:28:43.790Z,66.04
2022-09-12T07:31:16.250Z,66.12
2022-09-12T07:33:43.743Z,66.08
2022-09-12T07:36:12.831Z,65.82
2022-09-12T07:38:40.071Z,65.84
2022-09-12T07:41:29.341Z,65.69
2022-09-12T07:43:58.428Z,65.90
2022-09-12T07:46:26.405Z,65.81
2022-09-12T07:48:58.269Z,65.49
2022-09-12T07:51:26.024Z,65.36
2022-09-12T07:53:52.936Z,65.32
2022-09-12T07:56:20.226Z,64.94
2022-09-12T07:58:47.404Z,64.74
2022-09-12T08:01:16.422Z,64.59
2022-09-12T08:03:44.781Z,64.72
2022-09-12T08:06:14.347Z,63.86
2022-09-12T08:08:41.505Z,62.44
2022-09-12T08:11:10.235Z,62.26
2022-09-12T08:13:38.402Z,62.28
2022-09-12T08:16:12.173Z,62.63
2022-09-12T08:18:46.478Z,63.08
2022-09-12T08:21:17.942Z,63.05
2022-09-12T08:23:45.284Z,62.45
2022-09-12T08:26:15.712Z,62.29
2022-09-12T08:28:45.775Z,62.14
2022-09-12T08:31:14.643Z,61.81
2022-09-12T08:33:41.847Z,61.61
2022-09-12T08:36:15.779Z,61.68
2022-09-12T08:38:44.257Z,62.05
2022-09-12T08:41:35.200Z,62.15
2022-09-12T08:44:20.783Z,62.19
2022-09-12T08:46:52.051Z,62.22
2022-09-12T08:49:38.084Z,62.36
2022-09-12T08:52:09.964Z,62.23
2022-09-12T08:54:37.609Z,62.07
2022-09-12T08:57:12.131Z,61.71
2022-09-12T08:59:41.566Z,61.55
2022-09-12T09:02:34.960Z,61.52
2022-09-12T09:05:05.568Z,61.59
2022-09-12T09:08:05.344Z,61.28
2022-09-12T09:10:40.086Z,61.14
2022-09-12T09:13:39.274Z,60.93
2022-09-12T09:16:14.329Z,60.66
2022-09-12T09:18:41.452Z,60.98
2022-09-12T09:21:24.188Z,61.36
2022-09-12T09:23:55.754Z,61.80
2022-09-12T09:33:05.791Z,62.58
2022-09-12T09:36:26.132Z,62.55
2022-09-12T09:39:03.231Z,61.74
2022-09-12T09:41:43.181Z,61.35
2022-09-12T09:44:18.922Z,60.97
2022-09-12T09:46:45.972Z,60.72
2022-09-12T09:49:15.477Z,60.03
2022-09-12T09:51:42.523Z,59.71
2022-09-12T09:54:22.985Z,58.95
2022-09-12T09:56:50.439Z,58.78
2022-09-12T09:59:34.076Z,58.80
2022-09-12T10:02:13.991Z,58.77
2022-09-12T10:04:42.201Z,58.97
2022-09-12T10:07:18.438Z,59.44
2022-09-12T10:10:03.530Z,59.09
2022-09-12T10:12:30.601Z,58.45
2022-09-12T10:15:02.639Z,58.03
2022-09-12T10:17:39.944Z,57.88
2022-09-12T10:20:31.870Z,58.18
2022-09-12T10:23:02.839Z,58.34
2022-09-12T10:25:29.950Z,58.65
2022-09-12T10:27:58.754Z,58.60
2022-09-12T10:30:28.661Z,58.80
2022-09-12T10:33:06.627Z,58.70
2022-09-12T10:35:44.045Z,58.98
2022-09-12T10:38:37.510Z,59.05
2022-09-12T10:41:06.914Z,59.09
2022-09-12T10:43:33.963Z,58.81
2022-09-12T10:46:25.382Z,59.21
2022-09-12T10:49:12.005Z,58.89
2022-09-12T10:51:39.037Z,58.90
2022-09-12T10:54:08.325Z,58.88
2022-09-12T10:57:08.783Z,59.03
2022-09-12T10:59:58.561Z,59.34
2022-09-12T11:02:44.371Z,58.89
2022-09-12T11:05:14.243Z,59.03
2022-09-12T11:07:53.272Z,59.27
2022-09-12T11:10:27.183Z,59.20
2022-09-12T11:12:57.197Z,59.33
2022-09-12T11:15:43.733Z,58.94
2022-09-12T11:18:29.622Z,58.81
2022-09-12T11:21:05.643Z,59.43
2022-09-12T11:23:35.877Z,59.82
2022-09-12T11:26:19.606Z,59.84
2022-09-12T11:29:12.967Z,60.20
2022-09-12T11:31:50.057Z,60.28
2022-09-12T11:34:23.547Z,60.34
2022-09-12T11:37:23.670Z,60.76
2022-09-12T11:39:55.213Z,61.02
2022-09-12T11:42:26.881Z,60.98
2022-09-12T11:45:00.275Z,61.00
2022-09-12T11:47:27.425Z,61.29
2022-09-12T11:49:54.573Z,61.53
2022-09-12T11:52:25.723Z,62.06
2022-09-12T11:54:53.855Z,62.42
2022-09-12T11:57:31.381Z,62.86
2022-09-12T12:00:08.925Z,63.26
2022-09-12T12:02:56.409Z,63.68
2022-09-12T12:05:34.915Z,64.09
2022-09-12T12:08:02.982Z,64.22
2022-09-12T12:11:00.246Z,64.91
2022-09-12T12:13:46.643Z,65.51
2022-09-12T12:16:27.043Z,66.11
2022-09-12T12:18:56.107Z,66.24
2022-09-12T12:21:32.264Z,66.16
2022-09-12T12:24:26.378Z,66.28
2022-09-12T12:26:53.492Z,66.46
2022-09-12T12:29:20.542Z,66.83
2022-09-12T12:32:00.221Z,67.08
2022-09-12T12:34:44.533Z,67.59
2022-09-12T12:37:21.145Z,67.75
2022-09-12T12:39:48.631Z,67.72
2022-09-12T12:42:44.898Z,67.71
2022-09-12T12:45:18.806Z,67.61
2022-09-12T12:47:55.181Z,67.76
2022-09-12T12:50:24.026Z,67.88
2022-09-12T12:52:59.197Z,67.90
2022-09-12T12:55:45.915Z,67.81
2022-09-12T12:58:28.226Z,67.77
2022-09-12T13:01:10.167Z,67.64
2022-09-12T13:03:37.555Z,67.53
2022-09-12T13:06:10.030Z,67.34
2022-09-12T13:08:39.638Z,67.23
2022-09-12T13:11:12.440Z,67.02
2022-09-12T13:13:50.119Z,67.08
2022-09-12T13:16:57.459Z,66.94
2022-09-12T13:19:29.496Z,66.50
2022-09-12T13:21:57.142Z,66.55
2022-09-12T13:24:24.091Z,66.34
2022-09-12T13:26:51.133Z,65.94
2022-09-12T13:29:23.911Z,65.92
2022-09-12T13:31:59.286Z,66.05
2022-09-12T13:34:32.339Z,66.01
2022-09-12T13:37:02.561Z,65.80
2022-09-12T13:39:50.618Z,65.62
2022-09-12T13:42:50.414Z,65.67
2022-09-12T13:45:25.246Z,65.50
2022-09-12T13:47:58.907Z,65.70
2022-09-12T13:51:00.145Z,65.74
2022-09-12T13:53:51.713Z,65.30
2022-09-12T13:56:19.478Z,65.45
2022-09-12T13:58:57.282Z,65.52
2022-09-12T14:01:25.603Z,65.39
2022-09-12T14:04:12.369Z,65.35
2022-09-12T14:06:49.892Z,65.10
2022-09-12T14:09:31.042Z,65.30
2022-09-12T14:11:58.425Z,65.37
2022-09-12T14:14:32.300Z,65.62
2022-09-12T14:17:00.732Z,66.04
2022-09-12T14:19:30.485Z,66.37
2022-09-12T14:21:57.838Z,66.32
2022-09-12T14:24:24.899Z,66.28
2022-09-12T14:26:54.589Z,66.57
2022-09-12T14:29:22.770Z,66.87
2022-09-12T14:32:03.241Z,66.77
2022-09-12T14:34:33.350Z,66.68
2022-09-12T14:37:00.400Z,66.72
2022-09-12T14:39:34.306Z,66.98
2022-09-12T14:42:21.631Z,67.49
2022-09-12T14:45:06.697Z,67.53
2022-09-12T14:47:39.802Z,67.52
2022-09-12T14:50:21.754Z,67.57
2022-09-12T14:53:02.909Z,67.71
2022-09-12T14:55:31.237Z,67.99
2022-09-12T14:58:37.505Z,68.02
2022-09-12T15:01:07.607Z,68.17
2022-09-12T15:03:49.579Z,68.20
2022-09-12T15:06:38.702Z,68.10
2022-09-12T15:09:07.683Z,68.02
2022-09-12T15:11:39.747Z,67.71
2022-09-12T15:14:16.209Z,67.50
2022-09-12T15:16:43.461Z,67.67
2022-09-12T15:19:10.819Z,67.58
2022-09-12T15:21:37.864Z,67.46
2022-09-12T15:24:07.264Z,67.38
2022-09-12T15:26:38.573Z,67.49
2022-09-12T15:29:09.141Z,67.13
2022-09-12T15:31:36.285Z,66.87
2022-09-12T15:34:03.990Z,66.67
2022-09-12T15:37:50.182Z,66.69
2022-09-12T15:40:23.790Z,66.82
2022-09-12T15:42:57.560Z,66.89
2022-09-12T15:45:29.543Z,66.74
2022-09-12T15:47:56.773Z,66.74
2022-09-12T15:50:24.129Z,66.73
2022-09-12T15:52:54.451Z,66.84
2022-09-12T15:55:23.341Z,66.73
2022-09-12T15:57:50.701Z,67.08
2022-09-12T16:00:18.155Z,67.07
2022-09-12T16:02:48.113Z,67.23
2022-09-12T16:05:20.991Z,67.07
2022-09-12T16:07:49.329Z,67.19
2022-09-12T16:10:20.142Z,67.27
2022-09-12T16:12:49.775Z,67.57
2022-09-12T16:15:19.080Z,67.92
2022-09-12T16:17:46.323Z,68.42
2022-09-12T16:20:25.570Z,68.99
2022-09-12T16:22:52.934Z,69.13
2022-09-12T16:25:19.972Z,69.37
2022-09-12T16:27:47.185Z,69.53
2022-09-12T16:30:18.661Z,69.69
2022-09-12T16:32:50.400Z,69.85
2022-09-12T16:35:17.672Z,69.94
2022-09-12T16:37:44.826Z,70.19
2022-09-12T16:40:12.653Z,70.40
2022-09-12T16:42:43.550Z,70.63
2022-09-12T16:45:12.055Z,71.01
2022-09-12T16:47:43.896Z,71.34
2022-09-12T16:50:13.167Z,71.65
2022-09-12T16:52:45.538Z,72.11
2022-09-12T16:55:12.642Z,72.18
2022-09-12T16:57:39.634Z,72.27
2022-09-12T17:00:07.904Z,72.42
2022-09-12T17:02:37.469Z,72.50
2022-09-12T17:05:05.081Z,72.49
2022-09-12T17:07:36.957Z,72.50
2022-09-12T17:10:04.961Z,72.51
2022-09-12T17:12:32.561Z,72.53
2022-09-12T17:15:02.786Z,72.59
2022-09-12T17:17:29.856Z,72.67
2022-09-12T17:19:56.874Z,72.61
2022-09-12T17:22:24.011Z,72.58
2022-09-12T17:24:51.173Z,72.67
2022-09-12T17:27:18.321Z,72.56
2022-09-12T17:29:45.370Z,72.52
2022-09-12T17:32:16.844Z,72.67
2022-09-12T17:34:44.685Z,72.86
2022-09-12T17:37:11.593Z,72.97
2022-09-12T17:39:38.711Z,73.05
2022-09-12T17:42:08.154Z,73.15
2022-09-12T17:44:36.165Z,73.30
2022-09-12T17:47:05.655Z,73.52
2022-09-12T17:49:33.654Z,73.62
2022-09-12T17:52:02.312Z,73.79
2022-09-12T17:54:29.379Z,73.76
2022-09-12T17:56:56.712Z,73.91
2022-09-12T17:59:25.036Z,74.19
2022-09-12T18:02:10.914Z,74.54
2022-09-12T18:04:48.373Z,74.73
2022-09-12T18:07:18.384Z,74.84
2022-09-12T18:09:48.093Z,74.72
2022-09-12T18:12:15.654Z,74.81
2022-09-12T18:14:42.700Z,74.88
2022-09-12T18:17:11.487Z,74.78
2022-09-12T18:19:38.768Z,74.73
2022-09-12T18:22:09.780Z,74.75
2022-09-12T18:24:36.838Z,74.69
2022-09-12T18:27:10.188Z,74.62
2022-09-12T18:29:37.335Z,74.62
2022-09-12T18:32:04.589Z,74.53
2022-09-12T18:34:31.838Z,74.52
2022-09-12T18:36:59.331Z,74.48
2022-09-12T18:39:27.932Z,74.20
2022-09-12T18:41:55.140Z,74.17
2022-09-12T18:44:22.178Z,74.18
2022-09-12T18:46:49.283Z,74.33
2022-09-12T18:49:16.302Z,74.37
2022-09-12T18:51:44.437Z,74.43
2022-09-12T18:54:13.021Z,74.32
2022-09-12T18:56:43.786Z,74.37
2022-09-12T18:59:15.567Z,74.29
2022-09-12T19:01:43.389Z,74.46
2022-09-12T19:04:11.345Z,74.57
2022-09-12T19:06:43.114Z,74.42
2022-09-12T19:09:10.595Z,74.21
2022-09-12T19:11:39.388Z,74.36
2022-09-12T19:14:07.047Z,74.41
2022-09-12T19:16:34.263Z,74.39
2022-09-12T19:19:03.713Z,74.31
2022-09-12T19:21:31.430Z,74.30
2022-09-12T19:24:14.964Z,74.31
2022-09-12T19:26:42.117Z,74.42
2022-09-12T19:29:09.492Z,74.36
2022-09-12T19:31:37.165Z,74.45
2022-09-12T19:34:06.119Z,74.47
2022-09-12T19:36:44.887Z,74.46
2022-09-12T19:39:13.219Z,74.49
2022-09-12T19:41:40.265Z,74.53
2022-09-12T19:44:07.446Z,74.59
2022-09-12T19:46:35.557Z,74.67
2022-09-12T19:49:02.744Z,74.83
2022-09-12T19:51:29.992Z,74.77
2022-09-12T19:53:57.054Z,74.71
2022-09-12T19:56:24.191Z,74.75
2022-09-12T19:58:56.936Z,74.86
2022-09-12T20:01:26.007Z,74.95
2022-09-12T20:03:54.137Z,75.02
2022-09-12T20:06:21.385Z,74.88
2022-09-12T20:08:48.662Z,74.76
2022-09-12T20:11:19.712Z,74.71
2022-09-12T20:13:46.933Z,74.84
2022-09-12T20:16:21.679Z,74.80
2022-09-12T20:18:56.181Z,74.92
2022-09-12T20:21:32.081Z,74.85
2022-09-12T20:24:04.509Z,74.75
2022-09-12T20:26:31.671Z,74.67
2022-09-12T20:28:59.116Z,74.67
2022-09-12T20:31:26.330Z,74.87
2022-09-12T20:33:53.464Z,74.96
2022-09-12T20:36:20.878Z,75.05
2022-09-12T20:38:49.804Z,75.00
2022-09-12T20:41:17.166Z,75.14
2022-09-12T20:43:44.265Z,75.18
2022-09-12T20:46:11.765Z,75.33
2022-09-12T20:48:39.181Z,75.48
2022-09-12T20:51:06.943Z,75.65
2022-09-12T20:53:35.216Z,75.51
2022-09-12T20:56:03.495Z,75.55
2022-09-12T20:58:30.443Z,75.81
2022-09-12T21:00:57.593Z,75.97
2022-09-12T21:03:25.566Z,76.24
2022-09-12T21:05:52.707Z,76.27
2022-09-12T21:08:19.859Z,76.29
2022-09-12T21:10:47.039Z,76.27
2022-09-12T21:13:14.257Z,76.55
2022-09-12T21:15:41.638Z,76.69
2022-09-12T21:18:08.862Z,76.79
2022-09-12T21:20:35.828Z,76.65
2022-09-12T21:23:03.061Z,76.68
2022-09-12T21:25:30.428Z,76.88
2022-09-12T21:27:57.602Z,76.98
2022-09-12T21:30:24.616Z,76.88
2022-09-12T21:32:52.005Z,76.90
2022-09-12T21:35:19.015Z,76.90
2022-09-12T21:37:46.297Z,76.94
2022-09-12T21:40:13.353Z,77.11
2022-09-12T21:42:40.479Z,77.25
2022-09-12T21:45:09.088Z,77.20
2022-09-12T21:47:40.912Z,77.19
2022-09-12T21:50:09.358Z,77.26
2022-09-12T21:52:37.055Z,77.36
2022-09-12T21:55:06.403Z,77.44
2022-09-12T21:57:34.438Z,77.53
2022-09-12T22:00:10.547Z,77.54
2022-09-12T22:02:37.632Z,77.46
2022-09-12T22:05:05.307Z,77.46
2022-09-12T22:07:32.447Z,77.42
2022-09-12T22:09:59.898Z,77.52
2022-09-12T22:12:28.069Z,77.42
2022-09-12T22:14:57.933Z,77.35
2022-09-12T22:17:25.030Z,77.31
2022-09-12T22:19:52.075Z,77.26
2022-09-12T22:22:37.861Z,77.31
2022-09-12T22:25:05.524Z,77.33
2022-09-12T22:27:32.468Z,77.43
2022-09-12T22:29:59.521Z,77.36
2022-09-12T22:32:26.563Z,77.38
2022-09-12T22:34:53.711Z,77.43
2022-09-12T22:37:21.066Z,77.49
2022-09-12T22:39:48.462Z,77.50
2022-09-12T22:42:15.467Z,77.30
2022-09-12T22:44:42.519Z,77.22
2022-09-12T22:47:09.561Z,77.14
2022-09-12T22:49:36.534Z,77.24
2022-09-12T22:52:03.557Z,77.02
2022-09-12T22:54:30.709Z,76.82
2022-09-12T22:56:57.750Z,77.01
2022-09-12T22:59:24.797Z,76.92
2022-09-12T23:01:51.844Z,76.98
2022-09-12T23:04:18.823Z,77.06
2022-09-12T23:06:45.940Z,76.93
2022-09-12T23:09:13.087Z,76.96
2022-09-12T23:11:40.262Z,76.73
2022-09-12T23:14:07.796Z,76.74
2022-09-12T23:16:35.551Z,76.86
2022-09-12T23:19:02.593Z,76.88
2022-09-12T23:21:30.371Z,76.81
2022-09-12T23:23:57.640Z,76.57
2022-09-12T23:26:25.900Z,76.56
2022-09-12T23:28:57.116Z,76.43
2022-09-12T23:31:25.769Z,76.60
2022-09-12T23:33:54.349Z,76.63
2022-09-12T23:36:22.592Z,76.49
2022-09-12T23:38:49.835Z,76.43
2022-09-12T23:41:17.605Z,76.53
2022-09-12T23:43:45.776Z,76.53
2022-09-12T23:46:13.707Z,76.65
2022-09-12T23:48:40.902Z,76.78
2022-09-12T23:51:07.941Z,76.56
2022-09-12T23:53:36.013Z,76.53
2022-09-12T23:56:03.504Z,76.65
2022-09-12T23:58:31.339Z,76.70
